Time;durP1;ratioP1;P1;durP2;ratioP2;P2;SDS_P1;SDS_P2;PMS_P1;PMS_P2;Temp;Humidity;BMP_temperature;BMP_pressure;BME280_temperature;BME280_humidity;BME280_pressure;Samples;Min_cycle;Max_cycle;Signal;HPM_P1;HPM_P2
2022/05/16 00:01:19;;;;;;;4.28;1.50;;;;;;;11.61;61.97;101626.84;6169952;23;20000;-79
2022/05/16 00:03:45;;;;;;;1.30;1.20;;;;;;;11.54;63.75;101627.78;6170149;23;20008;-79
2022/05/16 00:06:10;;;;;;;3.50;1.55;;;;;;;11.48;62.49;101630.44;6145070;23;20503;-78
2022/05/16 00:08:35;;;;;;;12.38;6.82;;;;;;;11.46;62.73;101633.03;6170329;23;20000;-79
2022/05/16 00:11:01;;;;;;;3.75;2.35;;;;;;;11.47;62.30;101637.41;6169313;23;20001;-79
2022/05/16 00:13:26;;;;;;;6.38;4.75;;;;;;;11.41;63.95;101633.94;6168811;23;20008;-79
2022/05/16 00:15:52;;;;;;;1.85;1.30;;;;;;;11.27;64.79;101629.63;6168716;23;20020;-79
2022/05/16 00:18:18;;;;;;;1.77;1.35;;;;;;;11.17;64.34;101625.31;6170067;23;20376;-79
2022/05/16 00:20:43;;;;;;;2.33;1.10;;;;;;;11.10;65.00;101629.72;6145331;23;20001;-79
2022/05/16 00:23:09;;;;;;;1.65;1.10;;;;;;;11.06;65.28;101627.13;6169912;23;20009;-79
2022/05/16 00:25:34;;;;;;;1.88;1.48;;;;;;;11.02;65.59;101628.00;6169691;23;20009;-79
2022/05/16 00:28:00;;;;;;;4.03;3.60;;;;;;;10.99;65.75;101627.13;6169183;23;20005;-79
2022/05/16 00:30:25;;;;;;;1.95;1.60;;;;;;;10.93;65.60;101634.97;6144091;23;20368;-80
2022/05/16 00:32:50;;;;;;;2.95;1.40;;;;;;;10.92;66.04;101635.88;6168805;23;20012;-78
2022/05/16 00:35:19;;;;;;;2.17;1.98;;;;;;;10.91;65.82;101634.13;6144860;23;20069;-78
2022/05/16 00:37:44;;;;;;;10.55;6.57;;;;;;;10.85;65.72;101623.66;6167719;23;20039;-77
2022/05/16 00:40:11;;;;;;;5.72;4.22;;;;;;;10.87;65.85;101631.53;6167838;23;20005;-79
2022/05/16 00:42:37;;;;;;;6.70;4.03;;;;;;;10.78;65.58;101619.34;6168340;23;20328;-78
2022/05/16 00:45:03;;;;;;;2.70;2.42;;;;;;;10.85;66.53;101631.50;6168498;23;20036;-78
2022/05/16 00:47:29;;;;;;;3.78;3.47;;;;;;;10.84;66.03;101627.19;6169386;23;20017;-78
2022/05/16 00:49:55;;;;;;;2.20;2.10;;;;;;;10.89;66.20;101619.31;6169510;23;20012;-78
2022/05/16 00:52:29;;;;;;;1.55;1.45;;;;;;;10.89;65.82;101628.00;6169953;23;20008;-79
2022/05/16 00:55:00;;;;;;;3.33;1.60;;;;;;;10.88;65.18;101628.91;6168928;23;20048;-78
2022/05/16 00:57:35;;;;;;;1.65;1.55;;;;;;;10.93;65.08;101621.91;6167880;23;20400;-79
2022/05/16 01:00:05;;;;;;;3.08;1.38;;;;;;;10.92;65.92;101628.03;6168788;23;20000;-79
2022/05/16 01:05:17;;;;;;;2.70;1.88;;;;;;;10.89;65.71;101614.94;6171865;23;20036;-78
2022/05/16 01:07:44;;;;;;;2.88;1.25;;;;;;;10.92;65.56;101609.72;6167695;23;19997;-79
2022/05/16 01:10:13;;;;;;;2.05;1.45;;;;;;;10.87;66.14;101601.03;6166716;23;20176;-79
2022/05/16 01:12:44;;;;;;;2.45;1.40;;;;;;;10.83;66.31;101610.59;6167630;23;20009;-79
2022/05/16 01:15:12;;;;;;;2.83;1.48;;;;;;;10.86;65.86;101612.34;6167065;23;20100;-78
2022/05/16 01:17:38;;;;;;;1.75;1.10;;;;;;;10.88;65.86;101597.53;6142489;23;20012;-78
2022/05/16 01:20:05;;;;;;;1.63;1.38;;;;;;;10.81;66.35;101601.03;6165975;23;20001;-78
2022/05/16 01:22:36;;;;;;;2.25;1.50;;;;;;;10.75;66.36;101594.06;6141934;23;20043;-78
2022/05/16 01:25:05;;;;;;;2.78;1.38;;;;;;;10.70;66.89;101587.13;6167232;23;20005;-78
2022/05/16 01:27:52;;;;;;;3.08;1.73;;;;;;;10.67;67.12;101584.53;6191295;23;20001;-78
2022/05/16 01:30:21;;;;;;;2.38;1.65;;;;;;;10.65;66.68;101574.09;6142475;23;20028;-78
2022/05/16 01:32:46;;;;;;;2.22;1.58;;;;;;;10.61;67.65;101583.66;6141991;23;20043;-78
2022/05/16 01:35:12;;;;;;;1.95;1.40;;;;;;;10.65;67.19;101580.16;6141128;23;20005;-78
2022/05/16 01:40:21;;;;;;;1.45;1.35;;;;;;;10.60;67.34;101570.59;6168519;23;20015;-78
2022/05/16 01:42:46;;;;;;;2.35;1.60;;;;;;;10.58;68.08;101575.84;6164635;23;20033;-78
2022/05/16 01:45:12;;;;;;;1.45;1.30;;;;;;;10.48;67.68;101575.00;6140547;23;20088;-78
2022/05/16 01:47:37;;;;;;;3.47;1.30;;;;;;;10.47;67.45;101575.88;6165715;23;19997;-79
2022/05/16 01:50:03;;;;;;;3.38;1.73;;;;;;;10.54;68.24;101575.84;6166402;23;20005;-78
2022/05/16 01:52:28;;;;;;;4.15;1.67;;;;;;;10.49;67.46;101566.25;6166487;23;20091;-78
2022/05/16 01:54:54;;;;;;;1.55;1.45;;;;;;;10.51;68.27;101563.66;6165496;23;20005;-77
2022/05/16 01:57:19;;;;;;;5.80;1.60;;;;;;;10.53;67.73;101563.66;6166404;23;20021;-78
2022/05/16 01:59:44;;;;;;;3.25;1.83;;;;;;;10.55;67.71;101565.41;6165757;23;20013;-78
2022/05/16 02:02:10;;;;;;;2.20;1.73;;;;;;;10.56;68.11;101559.28;6165864;23;20044;-79
2022/05/16 02:04:35;;;;;;;3.70;1.90;;;;;;;10.59;68.21;101555.81;6191392;23;20005;-78
2022/05/16 02:07:00;;;;;;;2.35;1.65;;;;;;;10.55;67.99;101554.97;6165001;23;20019;-78
2022/05/16 02:09:26;;;;;;;5.03;1.70;;;;;;;10.40;68.63;101548.03;6192272;23;19997;-78
2022/05/16 02:11:51;;;;;;;1.95;1.70;;;;;;;10.37;68.20;101550.63;6164048;23;20001;-78
2022/05/16 02:14:17;;;;;;;2.38;1.75;;;;;;;10.25;69.01;101538.44;6139667;23;20028;-79
2022/05/16 02:16:42;;;;;;;3.72;1.80;;;;;;;10.25;69.11;101546.28;6162925;23;20004;-78
2022/05/16 02:19:07;;;;;;;2.75;2.50;;;;;;;10.22;69.12;101548.88;6163044;23;20455;-78
2022/05/16 02:27:01;;;;;;;2.88;2.20;;;;;;;10.16;69.19;101543.66;6168278;23;20035;-78
2022/05/16 02:29:26;;;;;;;2.75;1.98;;;;;;;10.15;69.32;101534.09;6164094;23;20005;-78
2022/05/16 02:31:51;;;;;;;2.15;1.88;;;;;;;10.07;69.95;101533.22;6139084;23;20008;-78
2022/05/16 02:34:17;;;;;;;2.38;2.17;;;;;;;10.10;69.82;101535.81;6163198;23;20080;-78
2022/05/16 02:36:42;;;;;;;3.03;1.80;;;;;;;10.10;69.44;101539.31;6162974;23;19997;-78
2022/05/16 02:39:08;;;;;;;4.75;1.90;;;;;;;10.08;68.93;101538.44;6163224;23;20032;-78
2022/05/16 02:41:33;;;;;;;2.55;1.90;;;;;;;10.09;69.43;101542.78;6138234;23;20040;-78
2022/05/16 02:43:59;;;;;;;2.13;1.58;;;;;;;10.07;69.31;101541.06;6162297;23;20041;-78
2022/05/16 02:46:24;;;;;;;2.22;1.55;;;;;;;10.11;69.72;101537.56;6162649;23;20009;-78
2022/05/16 02:48:50;;;;;;;3.90;2.17;;;;;;;10.10;69.63;101536.72;6138549;23;20425;-78
2022/05/16 02:51:15;;;;;;;3.95;2.25;;;;;;;10.15;69.15;101531.47;6162602;23;20005;-78
2022/05/16 02:53:49;;;;;;;4.47;1.90;;;;;;;10.15;69.16;101529.72;6164139;23;20390;-78
2022/05/16 02:56:14;;;;;;;3.58;1.77;;;;;;;10.20;69.75;101532.34;6162926;23;20512;-78
2022/05/16 02:58:40;;;;;;;2.72;1.90;;;;;;;10.14;70.34;101525.41;6163520;23;20009;-78
2022/05/16 03:01:07;;;;;;;2.80;2.35;;;;;;;10.09;70.26;101528.84;6164802;23;20005;-78
2022/05/16 03:03:32;;;;;;;3.28;2.20;;;;;;;10.04;70.03;101523.66;6164183;23;20005;-79
2022/05/16 03:05:58;;;;;;;3.55;2.20;;;;;;;10.02;70.18;101528.03;6164593;23;20020;-79
2022/05/16 03:08:24;;;;;;;2.58;1.70;;;;;;;10.05;69.56;101534.94;6166546;23;20020;-78
2022/05/16 03:10:49;;;;;;;3.67;2.10;;;;;;;10.07;70.06;101523.63;6140416;23;20009;-78
2022/05/16 03:13:14;;;;;;;2.38;1.88;;;;;;;10.01;69.77;101525.38;6166309;23;20009;-78
2022/05/16 03:15:40;;;;;;;3.67;1.75;;;;;;;10.02;70.33;101519.28;6165813;23;20105;-78
2022/05/16 03:18:05;;;;;;;2.42;1.83;;;;;;;9.97;70.35;101528.00;6165163;23;20071;-78
2022/05/16 03:20:31;;;;;;;2.72;1.60;;;;;;;10.00;70.30;101521.06;6166652;23;20009;-78
2022/05/16 03:22:56;;;;;;;3.22;2.00;;;;;;;10.05;69.90;101519.28;6165578;23;20005;-78
2022/05/16 03:25:22;;;;;;;2.38;2.17;;;;;;;10.00;69.96;101521.06;6167552;23;20008;-78
2022/05/16 03:27:47;;;;;;;5.88;2.30;;;;;;;10.06;69.89;101521.03;6166303;23;19997;-78
2022/05/16 03:30:13;;;;;;;3.33;1.83;;;;;;;10.07;69.95;101522.78;6167333;23;20009;-78
2022/05/16 03:32:38;;;;;;;2.80;1.90;;;;;;;9.98;70.35;101529.75;6192046;23;20389;-78
2022/05/16 03:35:05;;;;;;;2.63;2.42;;;;;;;10.03;69.94;101526.28;6142681;23;20031;-78
2022/05/16 03:37:30;;;;;;;2.90;1.67;;;;;;;10.00;70.64;101513.22;6166440;23;20008;-78
2022/05/16 03:42:40;;;;;;;4.05;2.05;;;;;;;10.03;70.08;101503.63;6171705;23;20011;-78
2022/05/16 03:45:05;;;;;;;3.58;2.28;;;;;;;10.03;70.58;101506.25;6167910;23;20092;-79
2022/05/16 03:47:31;;;;;;;1.77;1.67;;;;;;;10.06;70.72;101501.03;6167257;23;20005;-78
2022/05/16 03:49:56;;;;;;;1.80;1.70;;;;;;;10.08;70.73;101508.88;6167209;23;20028;-78
2022/05/16 03:52:22;;;;;;;2.95;1.90;;;;;;;10.11;70.56;101516.69;6167043;23;20005;-79
2022/05/16 03:54:47;;;;;;;4.72;2.35;;;;;;;10.16;70.63;101509.72;6142427;23;20083;-78
2022/05/16 03:57:12;;;;;;;3.10;2.45;;;;;;;10.23;70.58;101508.84;6167294;23;20076;-78
2022/05/16 03:59:38;;;;;;;2.47;1.95;;;;;;;10.28;70.11;101514.03;6167722;23;20012;-78
2022/05/16 04:02:05;;;;;;;2.22;2.03;;;;;;;10.37;69.58;101505.38;6169022;23;20064;-78
2022/05/16 04:04:31;;;;;;;3.70;1.90;;;;;;;10.33;69.62;101499.22;6168113;23;20008;-77
2022/05/16 04:06:56;;;;;;;4.15;2.03;;;;;;;10.36;69.97;101503.63;6170383;23;20005;-77
2022/05/16 04:09:22;;;;;;;3.53;2.50;;;;;;;10.34;70.18;101505.34;6170393;23;20000;-78
2022/05/16 04:11:48;;;;;;;1.70;1.60;;;;;;;10.38;70.40;101507.97;6171121;23;20012;-77
2022/05/16 04:14:13;;;;;;;2.97;1.85;;;;;;;10.51;70.21;101497.47;6170954;23;20004;-78
2022/05/16 04:16:38;;;;;;;5.78;2.25;;;;;;;10.44;69.70;101496.63;6163887;23;20455;-77
2022/05/16 04:19:07;;;;;;;2.35;1.90;;;;;;;10.49;70.87;101489.66;6162947;23;20020;-77
2022/05/16 04:21:36;;;;;;;3.40;2.03;;;;;;;10.60;70.46;101493.09;6163084;23;20456;-77
2022/05/16 04:24:02;;;;;;;7.22;2.38;;;;;;;10.64;69.78;101483.50;6138585;23;20441;-78
2022/05/16 04:26:28;;;;;;;3.35;2.22;;;;;;;10.71;69.82;101487.81;6163011;23;20055;-78
2022/05/16 04:28:53;;;;;;;6.43;2.03;;;;;;;10.64;69.42;101489.59;6162417;23;20024;-78
2022/05/16 04:31:18;;;;;;;3.15;2.10;;;;;;;10.64;69.70;101493.97;6163360;23;20007;-77
2022/05/16 04:33:44;;;;;;;2.33;2.10;;;;;;;10.66;70.23;101497.41;6162424;23;20004;-77
2022/05/16 04:36:09;;;;;;;2.78;2.33;;;;;;;10.71;70.29;101492.19;6163034;23;20009;-77
2022/05/16 04:38:35;;;;;;;3.63;2.00;;;;;;;10.72;69.87;101493.94;6162047;23;20009;-78
2022/05/16 04:43:44;;;;;;;3.25;2.30;;;;;;;10.75;69.84;101492.16;6166235;23;20016;-78
2022/05/16 04:46:09;;;;;;;4.20;2.08;;;;;;;10.81;69.47;101494.75;6138287;23;20012;-78
2022/05/16 04:48:35;;;;;;;2.80;2.10;;;;;;;10.88;69.50;101495.59;6161732;23;20001;-78
2022/05/16 04:51:00;;;;;;;3.80;2.03;;;;;;;10.87;69.91;101501.69;6161778;23;20369;-78
2022/05/16 04:53:25;;;;;;;4.13;1.90;;;;;;;10.90;69.02;101501.69;6161202;23;20008;-77
2022/05/16 04:55:51;;;;;;;3.63;2.25;;;;;;;10.94;69.88;101498.19;6161431;23;20070;-77
2022/05/16 04:58:16;;;;;;;2.33;2.00;;;;;;;10.92;69.56;101493.81;6161671;23;20005;-78
2022/05/16 05:00:42;;;;;;;3.85;2.05;;;;;;;10.98;69.67;101489.44;6161925;23;20008;-78
2022/05/16 05:03:07;;;;;;;2.17;1.80;;;;;;;10.96;69.12;101480.75;6137291;23;20032;-77
2022/05/16 05:05:35;;;;;;;2.88;2.00;;;;;;;10.98;69.99;101478.97;6163070;23;20007;-80
2022/05/16 05:08:01;;;;;;;4.85;2.00;;;;;;;10.98;69.80;101480.75;6162865;23;20449;-79
2022/05/16 05:16:23;;;;;;;3.15;1.90;;;;;;;11.11;69.52;101476.28;6166042;23;20617;-78
2022/05/16 05:18:49;;;;;;;4.38;2.17;;;;;;;11.13;69.48;101477.16;6125538;23;20001;-79
2022/05/16 05:21:15;;;;;;;4.90;2.33;;;;;;;11.18;68.92;101484.97;6161835;23;20032;-79
2022/05/16 05:23:41;;;;;;;2.88;2.33;;;;;;;11.25;69.47;101487.56;6161181;23;20103;-79
2022/05/16 05:26:08;;;;;;;3.25;2.15;;;;;;;11.26;68.23;101473.59;6137361;23;20405;-79
2022/05/16 05:28:34;;;;;;;3.88;2.85;;;;;;;11.34;68.92;101470.91;6137139;23;20401;-79
2022/05/16 05:30:59;;;;;;;8.88;2.90;;;;;;;11.38;70.01;101469.16;6162344;23;20408;-79
2022/05/16 05:33:25;;;;;;;5.43;2.50;;;;;;;11.42;69.15;101463.88;6162095;23;20012;-79
2022/05/16 05:35:51;;;;;;;3.85;2.30;;;;;;;11.44;69.60;101463.91;6161261;23;20066;-79
2022/05/16 05:38:17;;;;;;;5.15;2.17;;;;;;;11.47;69.08;101466.47;6162105;23;20001;-79
2022/05/16 05:40:43;;;;;;;7.72;2.38;;;;;;;11.48;68.62;101463.00;6161205;23;20322;-79
2022/05/16 05:43:08;;;;;;;4.68;2.00;;;;;;;11.50;68.48;101461.22;6160656;23;20001;-79
2022/05/16 05:45:35;;;;;;;6.15;2.40;;;;;;;11.55;68.56;101459.44;6162341;23;20754;-80
2022/05/16 05:48:01;;;;;;;3.15;2.30;;;;;;;11.60;69.31;101454.16;6162399;23;19997;-79
2022/05/16 05:50:27;;;;;;;6.25;2.40;;;;;;;11.62;69.14;101460.25;6161995;23;20012;-79
2022/05/16 05:52:52;;;;;;;6.35;2.35;;;;;;;11.66;68.83;101462.81;6161570;23;20001;-79
2022/05/16 05:55:18;;;;;;;5.22;2.47;;;;;;;11.66;69.00;101473.28;6162501;23;20055;-79
2022/05/16 05:57:43;;;;;;;4.70;1.95;;;;;;;11.73;68.21;101462.78;6162717;23;20536;-79
2022/05/16 06:00:09;;;;;;;4.65;1.98;;;;;;;11.78;68.82;101466.22;6162150;23;20012;-79
2022/05/16 06:02:40;;;;;;;3.08;2.10;;;;;;;11.83;68.32;101469.66;6137130;23;20008;-80
2022/05/16 06:05:17;;;;;;;3.22;2.25;;;;;;;11.86;69.26;101459.16;6162290;23;20013;-80
2022/05/16 06:07:43;;;;;;;3.17;2.00;;;;;;;11.88;69.10;101444.31;6162622;23;20026;-80
2022/05/16 06:10:09;;;;;;;5.18;2.33;;;;;;;11.90;68.19;101450.41;6162406;23;20333;-79
2022/05/16 06:12:34;;;;;;;6.80;2.22;;;;;;;11.95;67.39;101443.38;6162582;23;20098;-79
2022/05/16 06:15:00;;;;;;;6.35;2.20;;;;;;;12.02;67.34;101449.44;6162028;23;20028;-80
2022/05/16 06:17:25;;;;;;;4.22;2.50;;;;;;;12.06;67.05;101450.28;6161906;23;20005;-80
2022/05/16 06:19:51;;;;;;;3.75;1.98;;;;;;;12.08;67.98;101454.63;6162616;23;20005;-79
2022/05/16 06:22:16;;;;;;;3.75;2.22;;;;;;;12.10;68.34;101446.75;6162472;23;20488;-79
2022/05/16 06:27:29;;;;;;;4.53;2.35;;;;;;;12.13;67.12;101454.56;6165818;23;20394;-79
2022/05/16 06:29:56;;;;;;;6.43;2.90;;;;;;;12.19;67.70;101457.13;6162588;23;20009;-78
2022/05/16 06:32:22;;;;;;;4.25;2.17;;;;;;;12.21;66.73;101450.13;6137102;23;20032;-80
2022/05/16 06:34:48;;;;;;;4.13;2.25;;;;;;;12.25;68.77;101457.06;6161414;23;20106;-79
2022/05/16 06:37:14;;;;;;;2.55;2.20;;;;;;;12.27;67.11;101457.91;6138417;23;20008;-79
2022/05/16 06:39:39;;;;;;;3.42;2.20;;;;;;;12.29;67.82;101461.38;6162601;23;20413;-79
2022/05/16 06:42:05;;;;;;;4.70;2.00;;;;;;;12.37;67.16;101452.56;6161832;23;20096;-80
2022/05/16 06:44:30;;;;;;;4.88;2.38;;;;;;;12.42;68.46;101448.13;6136657;23;20075;-79
2022/05/16 06:46:56;;;;;;;4.40;2.40;;;;;;;12.47;67.61;101444.56;6162000;23;20005;-79
2022/05/16 06:49:22;;;;;;;4.35;2.25;;;;;;;12.50;68.60;101446.28;6161861;23;20083;-80
2022/05/16 06:51:47;;;;;;;4.07;2.15;;;;;;;12.54;68.13;101449.75;6160936;23;20005;-79
2022/05/16 06:54:13;;;;;;;8.45;2.05;;;;;;;12.59;67.96;101451.41;6161259;23;20001;-79
2022/05/16 06:56:38;;;;;;;7.32;2.10;;;;;;;12.65;67.43;101451.34;6161800;23;20015;-80
2022/05/16 06:59:04;;;;;;;3.50;2.90;;;;;;;12.72;68.24;101456.50;6136868;23;20033;-79
2022/05/16 07:01:29;;;;;;;5.13;2.63;;;;;;;12.73;67.83;101450.38;6161464;23;20429;-78
2022/05/16 07:03:55;;;;;;;5.18;2.25;;;;;;;12.76;67.97;101453.84;6162156;23;20011;-79
2022/05/16 07:06:20;;;;;;;5.10;2.50;;;;;;;12.82;66.91;101458.97;6161568;23;20009;-79
2022/05/16 07:08:45;;;;;;;5.13;2.55;;;;;;;12.93;66.08;101452.75;6161733;23;19997;-78
2022/05/16 07:11:11;;;;;;;4.05;2.10;;;;;;;12.94;66.12;101444.84;6136801;23;20001;-78
2022/05/16 07:13:36;;;;;;;6.28;2.10;;;;;;;13.02;65.87;101442.97;6161094;23;20056;-79
2022/05/16 07:16:02;;;;;;;8.95;2.40;;;;;;;13.06;65.66;101446.44;6160467;23;20009;-79
2022/05/16 07:18:28;;;;;;;2.10;1.90;;;;;;;13.08;64.89;101449.88;6136470;23;20437;-79
2022/05/16 07:20:55;;;;;;;4.40;2.30;;;;;;;13.10;65.26;101453.38;6160987;23;20032;-78
2022/05/16 07:23:21;;;;;;;5.13;2.38;;;;;;;13.10;65.07;101455.09;6161174;23;20008;-79
2022/05/16 07:28:30;;;;;;;3.83;2.28;;;;;;;13.05;65.79;101456.91;6167950;23;20353;-78
2022/05/16 07:30:56;;;;;;;2.97;2.00;;;;;;;13.05;66.45;101443.81;6138081;23;20005;-81
2022/05/16 07:33:21;;;;;;;3.50;2.20;;;;;;;13.08;67.32;101451.66;6135732;23;20028;-79
2022/05/16 07:35:52;;;;;;;3.92;2.03;;;;;;;13.12;67.76;101458.59;6158272;23;20445;-80
2022/05/16 07:38:22;;;;;;;3.33;1.85;;;;;;;13.15;65.67;101463.78;6161967;23;20005;-80
2022/05/16 07:40:48;;;;;;;6.78;2.80;;;;;;;13.23;65.71;101463.69;6162819;23;20009;-79
2022/05/16 07:43:15;;;;;;;5.05;2.70;;;;;;;13.26;65.22;101456.59;6160421;23;20092;-79
2022/05/16 07:45:41;;;;;;;5.03;3.00;;;;;;;13.31;66.09;101446.91;6137401;23;20005;-79
2022/05/16 07:48:06;;;;;;;6.18;2.80;;;;;;;13.37;65.36;101448.59;6162405;23;20092;-79
2022/05/16 07:50:33;;;;;;;4.22;2.53;;;;;;;13.48;66.19;101448.44;6162602;23;20310;-79
2022/05/16 07:52:58;;;;;;;4.15;2.90;;;;;;;13.54;65.90;101440.47;6163071;23;20005;-78
2022/05/16 07:55:25;;;;;;;5.03;2.80;;;;;;;13.62;65.08;101448.19;6163587;23;20013;-79
2022/05/16 07:57:51;;;;;;;5.47;2.65;;;;;;;13.70;65.64;101446.31;6138876;23;20032;-79
2022/05/16 08:00:18;;;;;;;4.30;2.40;;;;;;;13.77;64.81;101439.19;6166183;23;20610;-78
2022/05/16 08:02:43;;;;;;;3.67;2.40;;;;;;;13.82;64.54;101438.22;6166337;23;20007;-78
2022/05/16 08:05:11;;;;;;;5.28;2.60;;;;;;;13.91;63.77;101437.19;6141362;23;20001;-78
2022/05/16 08:10:29;;;;;;;4.47;2.38;;;;;;;13.99;64.42;101434.44;6165841;23;19993;-78
2022/05/16 08:10:31;;;;;;;8.60;2.80;;;;;;;14.10;63.55;101434.25;6170115;23;20345;-78
2022/05/16 08:13:15;;;;;;;3.42;1.77;;;;;;;14.23;63.17;101437.47;6141978;23;20036;-78
2022/05/16 08:15:41;;;;;;;3.58;2.22;;;;;;;14.22;63.85;101434.00;6163743;23;20522;-78
2022/05/16 08:18:07;;;;;;;5.10;2.35;;;;;;;14.23;63.30;101424.34;6162245;23;20001;-79
2022/05/16 08:20:34;;;;;;;5.18;2.30;;;;;;;14.26;62.88;101419.03;6162004;23;20012;-80
2022/05/16 08:22:59;;;;;;;4.40;2.85;;;;;;;14.28;63.76;101415.47;6161054;23;20001;-79
2022/05/16 08:25:25;;;;;;;3.63;2.35;;;;;;;14.34;62.99;101417.97;6137267;23;20016;-79
2022/05/16 08:27:51;;;;;;;3.35;2.10;;;;;;;14.39;64.00;101417.03;6136818;23;20016;-79
2022/05/16 08:30:18;;;;;;;6.35;2.50;;;;;;;14.45;63.56;101416.88;6161003;23;20005;-81
2022/05/16 08:32:44;;;;;;;4.32;1.92;;;;;;;14.51;63.34;101411.50;6161148;23;20012;-79
2022/05/16 08:35:11;;;;;;;2.38;2.15;;;;;;;14.60;62.07;101411.31;6161579;23;20318;-80
2022/05/16 08:40:23;;;;;;;2.97;2.15;;;;;;;14.72;61.66;101418.09;6166222;23;20460;-80
2022/05/16 08:43:11;;;;;;;2.22;1.98;;;;;;;14.82;61.87;101416.09;6161470;23;20001;-79
2022/05/16 08:45:42;;;;;;;3.17;1.98;;;;;;;14.89;61.54;101417.72;6161739;23;20057;-79
2022/05/16 08:48:18;;;;;;;3.47;1.80;;;;;;;14.99;61.74;101413.13;6137254;23;20001;-79
2022/05/16 08:50:57;;;;;;;4.40;2.30;;;;;;;15.10;61.33;101410.22;6161824;23;20345;-79
2022/05/16 08:53:27;;;;;;;4.93;1.98;;;;;;;15.18;60.07;101418.81;6162201;23;20000;-79
2022/05/16 08:55:57;;;;;;;5.05;2.22;;;;;;;15.21;61.14;101408.19;6162772;23;20009;-79
2022/05/16 08:58:29;;;;;;;4.13;2.13;;;;;;;15.28;61.12;101401.88;6162524;23;20001;-79
2022/05/16 09:00:57;;;;;;;4.78;2.25;;;;;;;15.40;60.67;101402.50;6162842;23;20005;-79
2022/05/16 09:03:44;;;;;;;4.35;2.05;;;;;;;15.53;60.37;101401.28;6163262;23;20001;-80
2022/05/16 09:06:22;;;;;;;7.05;3.20;;;;;;;15.58;61.08;101402.00;6162050;23;20001;-80
2022/05/16 09:09:15;;;;;;;3.22;2.03;;;;;;;15.62;59.11;101403.66;6162303;23;20009;-80
2022/05/16 09:12:07;;;;;;;3.13;2.00;;;;;;;15.86;58.50;101396.91;6162216;23;20004;-80
2022/05/16 09:14:46;;;;;;;4.80;1.90;;;;;;;15.85;60.59;101394.31;6162355;23;20005;-80
2022/05/16 09:17:18;;;;;;;3.20;1.90;;;;;;;15.87;58.32;101403.06;6186672;23;20033;-79
2022/05/16 09:19:46;;;;;;;5.25;2.08;;;;;;;15.94;59.74;101396.72;6161685;23;20344;-80
2022/05/16 09:22:22;;;;;;;3.05;1.90;;;;;;;15.98;59.04;101385.19;6161814;23;20008;-80
2022/05/16 09:25:03;;;;;;;3.05;2.08;;;;;;;16.04;60.25;101387.63;6162640;23;20392;-79
2022/05/16 09:30:19;;;;;;;1.70;1.60;;;;;;;16.27;59.58;101390.53;6166154;23;20032;-80
2022/05/16 09:32:49;;;;;;;2.13;1.90;;;;;;;16.36;57.86;101388.50;6162168;23;20028;-80
2022/05/16 09:35:42;;;;;;;2.88;1.88;;;;;;;16.44;58.76;101384.75;6137634;23;20497;-80
2022/05/16 09:38:07;;;;;;;2.42;1.80;;;;;;;16.47;59.60;101376.75;6162848;23;20027;-80
2022/05/16 09:40:35;;;;;;;5.65;1.80;;;;;;;16.60;58.68;101372.84;6137567;23;20012;-79
2022/05/16 09:43:07;;;;;;;3.63;1.98;;;;;;;16.75;55.76;101371.50;6137610;23;20076;-80
2022/05/16 09:45:34;;;;;;;2.58;1.58;;;;;;;16.78;56.74;101363.47;6163954;23;20004;-80
2022/05/16 09:47:59;;;;;;;2.97;1.50;;;;;;;16.79;57.12;101367.00;6164252;23;20004;-80
2022/05/16 09:50:28;;;;;;;3.72;1.70;;;;;;;16.87;55.10;101364.97;6163540;23;20437;-80
2022/05/16 09:53:07;;;;;;;2.65;1.30;;;;;;;17.03;55.64;101355.69;6163357;23;20001;-80
2022/05/16 09:55:52;;;;;;;2.05;1.38;;;;;;;17.20;53.69;101360.38;6163711;23;20001;-79
2022/05/16 09:58:21;;;;;;;4.07;1.63;;;;;;;17.44;53.81;101354.31;6162985;23;20088;-80
2022/05/16 10:01:03;;;;;;;1.65;1.55;;;;;;;17.52;53.80;101362.84;6163108;23;20087;-79
2022/05/16 10:03:30;;;;;;;3.90;1.30;;;;;;;17.70;51.45;101351.66;6138397;23;20088;-80
2022/05/16 10:05:57;;;;;;;1.45;1.20;;;;;;;17.73;50.36;101343.59;6162218;23;20087;-79
2022/05/16 10:08:32;;;;;;;3.28;1.50;;;;;;;17.85;51.32;101350.22;6137394;23;20015;-79
2022/05/16 10:11:03;;;;;;;6.88;1.52;;;;;;;17.89;51.43;101351.00;6138529;23;20063;-80
2022/05/16 10:13:28;;;;;;;3.33;1.40;;;;;;;17.90;51.87;101347.41;6138631;23;20055;-80
2022/05/16 10:15:55;;;;;;;2.40;1.70;;;;;;;17.90;52.94;101347.41;6164071;23;20009;-81
2022/05/16 10:18:22;;;;;;;3.13;1.50;;;;;;;17.93;52.42;101350.00;6141535;23;20005;-81
2022/05/16 10:20:58;;;;;;;2.38;1.38;;;;;;;18.01;49.99;101340.00;6166409;23;20336;-81
2022/05/16 10:23:28;;;;;;;1.58;1.48;;;;;;;18.15;52.30;101343.91;6163624;23;20444;-81
2022/05/16 10:25:58;;;;;;;2.33;1.20;;;;;;;18.15;51.99;101342.13;6164080;23;20005;-81
2022/05/16 10:28:30;;;;;;;2.22;1.35;;;;;;;18.22;53.24;101327.75;6139340;23;20001;-81
2022/05/16 10:33:41;;;;;;;3.90;1.40;;;;;;;18.58;48.33;101326.38;6165302;23;20012;-81
2022/05/16 10:36:24;;;;;;;1.65;1.30;;;;;;;18.68;50.41;101332.16;6162102;23;20005;-81
2022/05/16 10:39:10;;;;;;;2.28;1.13;;;;;;;18.96;46.35;101323.13;6161769;23;20429;-81
2022/05/16 10:41:54;;;;;;;1.85;1.35;;;;;;;18.93;47.13;101318.81;6137125;23;20024;-81
2022/05/16 10:44:29;;;;;;;2.25;1.40;;;;;;;18.96;48.70;101315.19;6162956;23;20098;-81
2022/05/16 10:47:31;;;;;;;1.52;1.42;;;;;;;18.91;48.29;101325.97;6166525;23;20013;-81
2022/05/16 10:50:08;;;;;;;2.63;1.25;;;;;;;18.82;50.44;101315.72;6141410;23;20417;-81
2022/05/16 10:52:40;;;;;;;1.90;1.20;;;;;;;18.81;48.70;101314.84;6166070;23;20009;-80
2022/05/16 10:55:06;;;;;;;2.17;1.70;;;;;;;18.89;47.63;101318.06;6166041;23;20077;-81
2022/05/16 10:57:53;;;;;;;1.70;1.60;;;;;;;18.98;46.43;101316.84;6166254;23;20101;-81
2022/05/16 11:00:21;;;;;;;2.75;2.15;;;;;;;19.01;48.78;101316.72;6165218;23;20059;-81
2022/05/16 11:03:15;;;;;;;2.00;1.58;;;;;;;19.24;44.98;101306.94;6168598;23;20469;-80
2022/05/16 11:06:03;;;;;;;2.38;1.50;;;;;;;19.32;45.88;101302.19;6167103;23;20339;-81
2022/05/16 11:08:56;;;;;;;1.35;1.25;;;;;;;19.40;47.20;101300.06;6162936;23;20008;-82
2022/05/16 11:11:33;;;;;;;2.92;1.50;;;;;;;19.45;47.33;101299.00;6190248;23;20009;-81
2022/05/16 11:14:10;;;;;;;3.40;1.85;;;;;;;19.72;44.69;101300.41;6161799;23;20011;-81
2022/05/16 11:16:40;;;;;;;3.50;1.42;;;;;;;19.88;44.67;101289.16;6161181;23;20512;-81
2022/05/16 11:19:21;;;;;;;4.22;1.30;;;;;;;19.80;44.90;101283.31;6162670;23;20448;-81
2022/05/16 11:22:00;;;;;;;4.15;1.40;;;;;;;19.80;44.99;101278.00;6163633;23;20038;-81
2022/05/16 11:24:57;;;;;;;3.25;1.85;;;;;;;19.87;45.16;101268.88;6163142;23;20016;-81
2022/05/16 11:27:31;;;;;;;1.42;1.33;;;;;;;19.87;45.00;101263.56;6188359;23;20091;-82
2022/05/16 11:30:17;;;;;;;3.05;1.40;;;;;;;20.17;42.02;101263.06;6164588;23;20445;-81
2022/05/16 11:33:00;;;;;;;2.47;1.45;;;;;;;20.29;42.70;101254.53;6140255;23;20015;-81
2022/05/16 11:35:51;;;;;;;6.05;1.67;;;;;;;20.39;44.00;101245.16;6164900;23;20067;-81
2022/05/16 11:38:29;;;;;;;3.25;2.50;;;;;;;20.41;44.57;101253.03;6164060;23;20448;-81
2022/05/16 11:41:16;;;;;;;1.80;1.70;;;;;;;20.29;45.33;101254.53;6164961;23;20001;-81
2022/05/16 11:43:44;;;;;;;1.58;1.20;;;;;;;20.30;44.34;101258.03;6188217;23;20024;-81
2022/05/16 11:46:27;;;;;;;2.75;1.40;;;;;;;20.32;43.38;101253.53;6140528;23;20005;-81
2022/05/16 11:49:17;;;;;;;2.80;1.60;;;;;;;20.47;44.46;101263.38;6163702;23;20003;-81
2022/05/16 11:52:08;;;;;;;5.22;1.88;;;;;;;20.57;44.71;101263.78;6164921;23;20013;-81
2022/05/16 11:54:37;;;;;;;7.45;1.98;;;;;;;20.69;45.42;101257.91;6163836;23;20058;-80
2022/05/16 12:02:42;;;;;;;2.65;1.30;;;;;;;20.82;41.40;101254.63;6167322;23;20012;-81
2022/05/16 12:05:13;;;;;;;2.30;1.58;;;;;;;20.89;42.85;101237.47;6139055;23;20388;-81
2022/05/16 12:07:49;;;;;;;3.42;1.52;;;;;;;21.06;44.32;101252.53;6161968;23;20373;-81
2022/05/16 12:10:14;;;;;;;2.72;1.73;;;;;;;21.19;43.03;101255.41;6161612;23;20009;-81
2022/05/16 12:12:42;;;;;;;4.55;1.35;;;;;;;21.03;41.59;101250.88;6160825;23;20009;-80
2022/05/16 12:15:13;;;;;;;2.05;1.50;;;;;;;20.91;43.71;101244.41;6161222;23;20429;-80